Time;durP1;ratioP1;P1;durP2;ratioP2;P2;SDS_P1;SDS_P2;PMS_P1;PMS_P2;Temp;Humidity;BMP_temperature;BMP_pressure;BME280_temperature;BME280_humidity;BME280_pressure;Samples;Min_cycle;Max_cycle;Signal;HPM_P1;HPM_P2
2022/12/06 00:01:39;;;;;;;41.25;19.35;;;2.70;99.90;;;;;;5092270;28;20020;-42
2022/12/06 00:04:10;;;;;;;36.63;17.42;;;2.70;99.90;;;;;;5090984;28;20032;-43
2022/12/06 00:06:40;;;;;;;33.42;17.13;;;2.70;99.90;;;;;;5090902;28;20016;-43
2022/12/06 00:09:06;;;;;;;33.92;17.33;;;2.70;99.90;;;;;;5091978;28;20016;-43
2022/12/06 00:11:34;;;;;;;36.22;17.15;;;2.70;99.90;;;;;;5092110;28;20020;-43
2022/12/06 00:14:02;;;;;;;33.55;15.85;;;2.60;99.90;;;;;;5092514;28;20127;-42
2022/12/06 00:16:29;;;;;;;32.38;16.42;;;2.60;99.90;;;;;;5092243;28;20062;-41
2022/12/06 00:18:56;;;;;;;29.35;15.10;;;2.60;99.90;;;;;;5092334;28;20020;-41
2022/12/06 00:21:33;;;;;;;32.80;16.83;;;2.60;99.90;;;;;;5090416;28;20097;-42
2022/12/06 00:24:11;;;;;;;30.08;15.40;;;2.60;99.90;;;;;;5091916;28;20085;-42
2022/12/06 00:26:39;;;;;;;30.45;16.13;;;2.60;99.90;;;;;;5090550;28;20028;-41
2022/12/06 00:29:07;;;;;;;31.08;16.58;;;2.60;99.90;;;;;;5092191;28;20620;-41
2022/12/06 00:31:34;;;;;;;35.42;17.17;;;2.60;99.90;;;;;;5090645;28;20429;-41
2022/12/06 00:34:00;;;;;;;35.22;15.80;;;2.60;99.90;;;;;;5090467;28;20058;-42
2022/12/06 00:36:32;;;;;;;30.02;15.98;;;2.70;99.90;;;;;;5091656;28;20043;-41
2022/12/06 00:39:00;;;;;;;31.40;15.10;;;2.60;99.90;;;;;;5090492;28;20028;-41
2022/12/06 00:41:26;;;;;;;31.15;14.85;;;2.60;99.90;;;;;;5089978;28;20020;-41
2022/12/06 00:43:52;;;;;;;33.47;15.68;;;2.70;99.90;;;;;;5091615;28;20032;-44
2022/12/06 00:46:21;;;;;;;29.77;14.32;;;2.70;99.90;;;;;;5091786;28;20024;-41
2022/12/06 00:48:47;;;;;;;29.80;15.63;;;2.70;99.90;;;;;;5091912;28;20020;-41
2022/12/06 00:51:15;;;;;;;34.95;15.50;;;2.60;99.90;;;;;;5091326;28;20020;-41
2022/12/06 00:53:41;;;;;;;27.20;15.05;;;2.60;99.90;;;;;;5091833;28;20415;-42
2022/12/06 00:56:07;;;;;;;29.83;15.13;;;2.60;99.90;;;;;;5091778;28;20024;-42
2022/12/06 00:58:33;;;;;;;36.40;14.57;;;2.60;99.90;;;;;;5091592;28;20032;-41
2022/12/06 01:01:14;;;;;;;28.92;15.15;;;2.60;99.90;;;;;;5072877;28;20032;-41
2022/12/06 01:03:41;;;;;;;31.83;15.65;;;2.60;99.90;;;;;;5091387;28;20040;-42
2022/12/06 01:06:10;;;;;;;25.52;13.55;;;2.60;99.90;;;;;;5091269;28;20024;-42
2022/12/06 01:08:36;;;;;;;27.17;13.02;;;2.60;99.90;;;;;;5091036;28;20020;-41
2022/12/06 01:11:02;;;;;;;24.98;12.77;;;2.70;99.90;;;;;;5090618;28;20024;-41
2022/12/06 01:13:28;;;;;;;22.13;12.73;;;2.70;99.90;;;;;;5091223;28;20020;-43
2022/12/06 01:15:55;;;;;;;25.75;13.02;;;2.60;99.90;;;;;;5091056;28;20024;-41
2022/12/06 01:18:21;;;;;;;23.08;12.27;;;2.60;99.90;;;;;;5091408;28;20046;-41
2022/12/06 01:20:47;;;;;;;24.10;12.60;;;2.60;99.90;;;;;;5090374;28;20500;-41
2022/12/06 01:23:13;;;;;;;30.80;12.80;;;2.60;99.90;;;;;;5090808;28;20100;-41
2022/12/06 01:25:48;;;;;;;22.38;12.85;;;2.60;99.90;;;;;;5091082;28;20026;-41
2022/12/06 01:28:14;;;;;;;26.27;11.65;;;2.60;99.90;;;;;;5091252;28;20156;-41
2022/12/06 01:30:39;;;;;;;23.25;11.57;;;2.60;99.90;;;;;;5090373;28;20485;-41
2022/12/06 01:33:05;;;;;;;24.42;11.50;;;2.60;99.90;;;;;;5091087;28;20110;-41
2022/12/06 01:35:31;;;;;;;24.63;12.27;;;2.60;99.90;;;;;;5089648;28;20136;-41
2022/12/06 01:37:57;;;;;;;22.20;12.40;;;2.60;99.90;;;;;;5089250;28;20024;-41
2022/12/06 01:40:22;;;;;;;26.45;13.60;;;2.50;99.90;;;;;;5090143;28;20103;-41
2022/12/06 01:42:48;;;;;;;21.10;11.27;;;2.50;99.90;;;;;;5090800;28;20119;-41
2022/12/06 01:45:13;;;;;;;22.00;11.23;;;2.50;99.90;;;;;;5090434;28;20495;-41
2022/12/06 01:47:43;;;;;;;25.80;12.95;;;2.50;99.90;;;;;;5088985;28;20243;-41
2022/12/06 01:50:21;;;;;;;19.88;11.27;;;2.50;99.90;;;;;;5089408;28;20042;-40
2022/12/06 01:53:01;;;;;;;21.83;11.07;;;2.50;99.90;;;;;;5088971;28;20086;-41
2022/12/06 01:55:31;;;;;;;26.52;12.50;;;2.50;99.90;;;;;;5089116;28;20024;-41
2022/12/06 01:58:03;;;;;;;22.58;12.73;;;2.50;99.90;;;;;;5090663;28;20038;-41
2022/12/06 02:00:29;;;;;;;18.25;11.40;;;2.50;99.90;;;;;;5090129;28;20053;-41
2022/12/06 02:02:57;;;;;;;20.95;12.02;;;2.50;99.90;;;;;;5090348;28;20063;-40
2022/12/06 02:05:24;;;;;;;20.48;10.55;;;2.50;99.90;;;;;;5090182;28;20023;-41
2022/12/06 02:07:50;;;;;;;21.02;10.73;;;2.50;99.90;;;;;;5085322;28;20032;-41
2022/12/06 02:10:17;;;;;;;21.25;10.85;;;2.50;99.90;;;;;;5088164;28;20486;-43
2022/12/06 02:12:43;;;;;;;20.60;10.63;;;2.50;99.90;;;;;;5090122;28;20022;-41
2022/12/06 02:15:10;;;;;;;21.27;10.45;;;2.50;99.90;;;;;;5089805;28;20026;-41
2022/12/06 02:17:47;;;;;;;25.60;11.77;;;2.50;99.90;;;;;;5090085;28;20016;-41
2022/12/06 02:20:33;;;;;;;23.70;11.70;;;2.60;99.90;;;;;;5089254;28;20024;-41
2022/12/06 02:23:11;;;;;;;17.45;10.20;;;2.50;99.90;;;;;;5089651;28;20020;-41
2022/12/06 02:26:14;;;;;;;19.63;11.48;;;2.60;99.90;;;;;;5089888;28;20024;-41
2022/12/06 02:29:17;;;;;;;20.17;10.68;;;2.50;99.90;;;;;;5089836;28;20515;-41
2022/12/06 02:32:02;;;;;;;20.90;11.10;;;2.50;99.90;;;;;;5088946;28;20237;-41
2022/12/06 02:34:39;;;;;;;22.35;10.90;;;2.60;99.90;;;;;;5089618;28;20481;-41
2022/12/06 02:37:05;;;;;;;22.52;11.77;;;2.50;99.90;;;;;;5088385;28;20023;-41
2022/12/06 02:39:40;;;;;;;17.70;9.85;;;2.50;99.90;;;;;;5089411;28;20659;-41
2022/12/06 02:42:23;;;;;;;21.08;10.73;;;2.60;99.90;;;;;;5089804;28;20020;-42
2022/12/06 02:44:55;;;;;;;20.38;10.77;;;2.60;99.90;;;;;;5089439;28;20442;-42
2022/12/06 02:47:26;;;;;;;20.42;10.32;;;2.50;99.90;;;;;;5089417;28;20020;-40
2022/12/06 02:49:53;;;;;;;19.30;10.73;;;2.60;99.90;;;;;;5088745;28;20472;-41
2022/12/06 02:52:25;;;;;;;15.02;9.38;;;2.60;99.90;;;;;;5088252;28;20513;-41
2022/12/06 02:54:57;;;;;;;15.70;9.80;;;2.60;99.90;;;;;;5089307;28;20486;-41
2022/12/06 02:58:01;;;;;;;15.23;9.07;;;2.60;99.90;;;;;;5089164;28;20107;-41
2022/12/06 03:00:33;;;;;;;14.38;8.88;;;2.60;99.90;;;;;;5005083;28;20720;-41
2022/12/06 03:03:30;;;;;;;15.43;8.15;;;2.60;99.90;;;;;;5077170;28;20591;-41
2022/12/06 03:06:02;;;;;;;14.40;8.63;;;2.60;99.90;;;;;;5089166;28;20482;-41
2022/12/06 03:09:29;;;;;;;11.98;7.93;;;2.60;99.90;;;;;;5088848;28;20616;-41
2022/12/06 03:12:07;;;;;;;14.10;8.55;;;2.60;99.90;;;;;;5006109;28;20022;-41
2022/12/06 03:14:58;;;;;;;13.15;8.43;;;2.60;99.90;;;;;;5078147;28;20032;-41
2022/12/06 03:17:26;;;;;;;13.43;8.90;;;2.60;99.90;;;;;;5074526;28;20032;-41
2022/12/06 03:20:02;;;;;;;14.32;10.18;;;2.50;99.90;;;;;;5088354;28;20481;-41
2022/12/06 03:22:39;;;;;;;13.23;9.48;;;2.50;99.90;;;;;;5089140;28;20028;-41
2022/12/06 03:25:06;;;;;;;14.38;9.05;;;2.50;99.90;;;;;;5088713;28;20523;-41
2022/12/06 03:27:34;;;;;;;13.27;8.60;;;2.50;99.90;;;;;;5085343;28;20032;-41
2022/12/06 03:30:05;;;;;;;15.48;9.55;;;2.60;99.90;;;;;;5087282;28;20024;-40
2022/12/06 03:32:33;;;;;;;15.23;9.52;;;2.60;99.90;;;;;;5088780;28;20021;-41
2022/12/06 03:35:04;;;;;;;16.35;9.35;;;2.60;99.90;;;;;;5087540;28;20110;-41
2022/12/06 03:37:31;;;;;;;16.00;9.40;;;2.60;99.90;;;;;;5087678;28;20032;-41
2022/12/06 03:40:10;;;;;;;17.15;10.02;;;2.50;99.90;;;;;;5088173;28;20158;-42
2022/12/06 03:42:36;;;;;;;17.63;10.57;;;2.60;99.90;;;;;;5088563;28;20024;-41
2022/12/06 03:45:03;;;;;;;17.60;10.93;;;2.50;99.90;;;;;;5088469;28;20036;-42
2022/12/06 03:48:08;;;;;;;18.65;11.60;;;2.50;99.90;;;;;;5088580;28;20027;-41
2022/12/06 03:50:46;;;;;;;20.02;11.98;;;2.50;99.90;;;;;;5088193;28;20054;-41
2022/12/06 03:53:11;;;;;;;20.98;11.25;;;2.50;99.90;;;;;;5088890;28;20409;-42
2022/12/06 03:55:37;;;;;;;24.95;12.77;;;2.50;99.90;;;;;;5088347;28;20408;-42
2022/12/06 03:58:03;;;;;;;21.13;12.32;;;2.50;99.90;;;;;;5088406;28;20020;-42
2022/12/06 04:00:28;;;;;;;18.58;11.90;;;2.50;99.90;;;;;;5087934;28;20032;-41
2022/12/06 04:02:54;;;;;;;19.40;12.15;;;2.60;99.90;;;;;;5088574;28;20029;-41
2022/12/06 04:05:19;;;;;;;20.20;12.05;;;2.50;99.90;;;;;;5088572;28;20510;-42
2022/12/06 04:07:45;;;;;;;21.30;13.27;;;2.50;99.90;;;;;;5088462;28;20059;-41
2022/12/06 04:10:10;;;;;;;23.15;13.13;;;2.50;99.90;;;;;;5087895;28;20542;-42
2022/12/06 04:15:21;;;;;;;21.65;12.35;;;2.50;99.90;;;;;;5092167;28;20126;-43
2022/12/06 04:23:02;;;;;;;20.70;11.95;;;2.50;99.90;;;;;;5091974;28;20035;-42
2022/12/06 04:23:17;;;;;;;19.88;12.23;;;2.40;99.90;;;;;;5091728;28;20035;-42
2022/12/06 04:25:43;;;;;;;18.88;11.32;;;2.50;99.90;;;;;;5092133;28;20020;-41
2022/12/06 04:39:05;;;;;;;15.80;8.63;;;2.50;99.90;;;;;;5091754;28;20097;-41
2022/12/06 04:44:15;;;;;;;15.95;9.65;;;2.40;99.90;;;;;;5080100;28;20066;-41
2022/12/06 04:46:41;;;;;;;17.00;10.45;;;2.50;99.90;;;;;;5079588;28;20028;-41
2022/12/06 04:49:06;;;;;;;17.50;10.38;;;2.50;99.90;;;;;;5071183;28;20047;-42
2022/12/06 04:51:33;;;;;;;12.75;8.27;;;2.50;99.90;;;;;;5074923;28;20024;-41
2022/12/06 04:53:58;;;;;;;14.80;9.40;;;2.50;99.90;;;;;;5076800;28;20016;-40
2022/12/06 04:56:24;;;;;;;13.77;9.00;;;2.50;99.90;;;;;;5077979;28;20077;-43
2022/12/06 04:58:50;;;;;;;14.93;9.40;;;2.40;99.90;;;;;;5082077;28;20054;-41
2022/12/06 05:01:16;;;;;;;15.57;9.65;;;2.40;99.90;;;;;;5080750;28;20474;-41
2022/12/06 05:03:42;;;;;;;15.70;10.10;;;2.40;99.90;;;;;;5088527;28;20107;-41
2022/12/06 05:06:07;;;;;;;19.83;11.45;;;2.40;99.90;;;;;;5090185;28;20077;-41
2022/12/06 05:08:34;;;;;;;17.52;10.38;;;2.40;99.90;;;;;;5091179;28;20500;-41
2022/12/06 05:11:00;;;;;;;17.33;10.45;;;2.40;99.90;;;;;;5087282;28;20024;-40
2022/12/06 05:13:28;;;;;;;14.38;9.43;;;2.40;99.90;;;;;;5081309;28;20062;-41
2022/12/06 05:15:59;;;;;;;15.80;10.18;;;2.30;99.90;;;;;;5079669;28;20016;-41
2022/12/06 05:18:25;;;;;;;17.55;11.13;;;2.40;99.90;;;;;;5079607;28;20135;-40
2022/12/06 05:21:05;;;;;;;13.75;9.23;;;2.40;99.90;;;;;;5080921;28;20066;-41
2022/12/06 05:23:35;;;;;;;17.60;10.20;;;2.30;99.90;;;;;;5082052;28;20410;-41
2022/12/06 05:26:06;;;;;;;16.00;10.07;;;2.30;99.90;;;;;;5073661;28;20385;-40
2022/12/06 05:28:32;;;;;;;18.27;10.95;;;2.30;99.90;;;;;;5082049;28;20039;-41
2022/12/06 05:30:58;;;;;;;16.10;11.02;;;2.30;99.90;;;;;;5085591;28;20033;-45
2022/12/06 05:33:25;;;;;;;14.52;10.05;;;2.30;99.90;;;;;;5078965;28;20071;-41
2022/12/06 05:35:51;;;;;;;14.52;10.38;;;2.30;99.90;;;;;;5082035;28;20032;-41
2022/12/06 05:38:17;;;;;;;17.70;10.75;;;2.30;99.90;;;;;;5079214;28;20029;-41
2022/12/06 05:40:44;;;;;;;12.90;8.68;;;2.30;99.90;;;;;;5080173;28;20515;-40
2022/12/06 05:43:13;;;;;;;13.50;8.93;;;2.30;99.90;;;;;;5081554;28;20388;-41
2022/12/06 05:45:39;;;;;;;13.30;9.32;;;2.30;99.90;;;;;;5080156;28;20024;-41
2022/12/06 05:48:05;;;;;;;15.20;9.43;;;2.30;99.90;;;;;;5081440;28;20112;-40
2022/12/06 05:50:32;;;;;;;15.52;10.00;;;2.30;99.90;;;;;;5081272;28;20020;-41
2022/12/06 05:52:59;;;;;;;13.13;9.57;;;2.30;99.90;;;;;;5079874;28;20450;-41
2022/12/06 05:55:26;;;;;;;16.48;10.40;;;2.30;99.90;;;;;;5079536;28;20059;-40
2022/12/06 05:57:52;;;;;;;13.02;9.52;;;2.30;99.90;;;;;;5078169;28;20028;-41
2022/12/06 06:00:18;;;;;;;15.30;10.68;;;2.30;99.90;;;;;;5080117;28;20094;-40
2022/12/06 06:02:45;;;;;;;14.88;10.13;;;2.20;99.90;;;;;;5087175;28;20101;-40
2022/12/06 06:05:11;;;;;;;14.27;10.25;;;2.30;99.90;;;;;;5088963;28;20431;-40
2022/12/06 06:07:37;;;;;;;13.57;9.70;;;2.20;99.90;;;;;;5089980;28;20081;-39
2022/12/06 06:10:04;;;;;;;12.52;9.43;;;2.20;99.90;;;;;;5089519;28;20027;-40
2022/12/06 06:12:30;;;;;;;12.13;8.90;;;2.30;99.90;;;;;;5090241;28;20023;-40
2022/12/06 06:14:56;;;;;;;11.57;8.57;;;2.30;99.90;;;;;;5088485;28;20035;-40
2022/12/06 06:17:23;;;;;;;14.82;10.27;;;2.30;99.90;;;;;;5089251;28;20039;-40
2022/12/06 06:19:49;;;;;;;15.00;10.98;;;2.30;99.90;;;;;;5087801;28;20303;-40
2022/12/06 06:22:15;;;;;;;14.50;9.45;;;2.20;99.90;;;;;;5088717;28;20028;-39
2022/12/06 06:24:41;;;;;;;13.23;9.15;;;2.20;99.90;;;;;;5089674;28;20036;-39
2022/12/06 06:27:07;;;;;;;12.15;8.98;;;2.20;99.90;;;;;;5089550;28;20028;-40
2022/12/06 06:29:32;;;;;;;15.85;10.48;;;2.20;99.90;;;;;;5089111;28;20385;-40
2022/12/06 06:32:01;;;;;;;13.45;9.90;;;2.20;99.90;;;;;;5089784;28;20085;-40
2022/12/06 06:34:27;;;;;;;13.95;9.30;;;2.10;99.90;;;;;;5089592;28;20035;-40
2022/12/06 06:36:53;;;;;;;14.25;9.80;;;2.20;99.90;;;;;;5088414;28;20028;-40
2022/12/06 06:39:20;;;;;;;14.25;9.38;;;2.20;99.90;;;;;;5087733;28;20027;-40
2022/12/06 06:41:45;;;;;;;14.88;9.55;;;2.20;99.90;;;;;;5083540;28;20028;-41
2022/12/06 06:44:12;;;;;;;16.70;10.27;;;2.10;99.90;;;;;;5067192;28;20040;-40
2022/12/06 06:46:37;;;;;;;13.75;9.52;;;2.10;99.90;;;;;;5067695;28;20501;-40
2022/12/06 06:49:03;;;;;;;15.02;10.35;;;2.10;99.90;;;;;;5068975;28;20024;-40
2022/12/06 06:51:31;;;;;;;14.15;9.95;;;2.10;99.90;;;;;;5068519;28;20477;-40
2022/12/06 06:53:57;;;;;;;15.50;10.73;;;2.10;99.90;;;;;;5070114;28;20052;-40
2022/12/06 06:56:25;;;;;;;14.20;9.57;;;2.20;99.90;;;;;;5089390;28;20581;-40
2022/12/06 06:58:52;;;;;;;18.25;11.20;;;2.20;99.90;;;;;;5089090;28;20103;-40
2022/12/06 07:01:23;;;;;;;16.63;11.32;;;2.20;99.90;;;;;;5088714;28;20067;-41
2022/12/06 07:03:50;;;;;;;16.52;10.40;;;2.20;99.90;;;;;;5089005;28;20028;-40
2022/12/06 07:06:18;;;;;;;17.35;12.13;;;2.20;99.90;;;;;;5089410;28;20024;-40
2022/12/06 07:08:47;;;;;;;16.90;10.45;;;2.20;99.90;;;;;;5088807;28;20028;-40
2022/12/06 07:11:15;;;;;;;17.05;10.45;;;2.20;99.90;;;;;;5088339;28;20021;-41
2022/12/06 07:13:42;;;;;;;15.32;9.70;;;2.20;99.90;;;;;;5088825;28;20504;-40
2022/12/06 07:16:14;;;;;;;17.35;9.60;;;2.20;99.90;;;;;;5087664;28;20488;-40
2022/12/06 07:18:40;;;;;;;19.42;10.13;;;2.20;99.90;;;;;;5088801;28;20016;-41
2022/12/06 07:21:07;;;;;;;16.80;11.07;;;2.20;99.90;;;;;;5086884;28;20024;-40
2022/12/06 07:23:36;;;;;;;17.42;10.13;;;2.20;99.90;;;;;;5082002;28;20309;-40
2022/12/06 07:26:09;;;;;;;14.73;10.30;;;2.30;99.90;;;;;;5066154;28;20025;-40
2022/12/06 07:28:37;;;;;;;16.92;10.05;;;2.30;99.90;;;;;;5067542;28;20025;-40
2022/12/06 07:31:21;;;;;;;14.90;9.90;;;2.30;99.90;;;;;;5067055;28;20017;-41
2022/12/06 07:33:50;;;;;;;17.15;9.63;;;2.30;99.90;;;;;;5067517;28;20021;-40
2022/12/06 07:36:16;;;;;;;14.93;9.52;;;2.30;99.90;;;;;;5067304;28;20020;-40
2022/12/06 07:38:46;;;;;;;14.00;9.43;;;2.30;99.90;;;;;;5067673;28;20086;-41
2022/12/06 07:46:42;;;;;;;15.05;10.13;;;2.40;99.90;;;;;;5067823;28;20082;-42
2022/12/06 07:49:09;;;;;;;18.83;10.30;;;2.40;99.90;;;;;;5070068;28;20042;-41
2022/12/06 07:51:35;;;;;;;12.45;8.93;;;2.40;99.90;;;;;;5073776;28;20089;-41
2022/12/06 07:54:01;;;;;;;17.05;9.05;;;2.40;99.90;;;;;;5078699;28;20024;-42
2022/12/06 07:56:27;;;;;;;16.85;10.25;;;2.40;99.90;;;;;;5089317;28;20020;-42
2022/12/06 07:58:53;;;;;;;14.90;9.52;;;2.40;99.90;;;;;;5091246;28;20028;-41
2022/12/06 08:01:19;;;;;;;13.40;9.02;;;2.40;99.90;;;;;;5089676;28;20236;-41
2022/12/06 08:03:44;;;;;;;16.63;9.05;;;2.40;99.90;;;;;;5090175;28;20024;-41
2022/12/06 08:06:10;;;;;;;14.25;9.30;;;2.40;99.90;;;;;;5091429;28;20412;-41
2022/12/06 08:08:36;;;;;;;12.48;8.10;;;2.40;99.90;;;;;;5091408;28;20024;-42
2022/12/06 08:11:04;;;;;;;12.15;8.32;;;2.50;99.90;;;;;;5090242;28;20036;-41
2022/12/06 08:13:31;;;;;;;13.18;8.60;;;2.50;99.90;;;;;;5089993;28;20504;-43
2022/12/06 08:15:57;;;;;;;10.50;7.30;;;2.50;99.90;;;;;;5091084;28;20518;-41
2022/12/06 08:18:24;;;;;;;12.75;7.22;;;2.50;99.90;;;;;;5089435;28;20385;-42
2022/12/06 08:20:51;;;;;;;11.20;7.53;;;2.50;99.90;;;;;;5089094;28;20035;-41
2022/12/06 08:23:17;;;;;;;14.73;8.18;;;2.50;99.90;;;;;;5090904;28;20020;-42
2022/12/06 08:25:43;;;;;;;9.68;7.10;;;2.50;99.90;;;;;;5089445;28;20058;-41
2022/12/06 08:28:09;;;;;;;12.65;6.90;;;2.50;99.90;;;;;;5090590;28;20020;-41
2022/12/06 08:30:38;;;;;;;11.32;7.35;;;2.50;99.90;;;;;;5090365;28;20032;-41
2022/12/06 08:33:04;;;;;;;10.90;7.13;;;2.50;99.90;;;;;;5090569;28;20093;-41
2022/12/06 08:35:30;;;;;;;10.38;6.43;;;2.60;99.90;;;;;;5091174;28;20454;-41
2022/12/06 08:37:55;;;;;;;10.10;7.13;;;2.60;99.90;;;;;;5090742;28;20103;-41
2022/12/06 08:40:21;;;;;;;10.35;6.95;;;2.50;99.90;;;;;;5086903;28;20128;-42
2022/12/06 08:42:47;;;;;;;12.27;6.57;;;2.60;99.90;;;;;;5090426;28;20039;-41
2022/12/06 08:45:12;;;;;;;9.63;6.80;;;2.60;99.90;;;;;;5088612;28;20101;-41
2022/12/06 08:47:38;;;;;;;9.45;6.35;;;2.60;99.90;;;;;;5089680;28;20042;-41
2022/12/06 08:50:04;;;;;;;8.45;6.15;;;2.60;99.90;;;;;;5090120;28;20464;-41
2022/12/06 08:52:30;;;;;;;11.50;6.50;;;2.60;99.90;;;;;;5085424;28;20027;-41
2022/12/06 08:54:56;;;;;;;8.10;5.57;;;2.60;99.90;;;;;;5079498;28;20028;-41
2022/12/06 08:57:25;;;;;;;11.80;6.53;;;2.60;99.90;;;;;;5090282;28;20014;-41
2022/12/06 08:59:51;;;;;;;9.27;5.85;;;2.60;99.90;;;;;;5088437;28;20381;-40
2022/12/06 09:02:16;;;;;;;9.38;6.35;;;2.70;99.90;;;;;;5088831;28;20542;-41
2022/12/06 09:04:44;;;;;;;9.75;6.38;;;2.70;99.90;;;;;;5090263;28;20074;-41
2022/12/06 09:07:10;;;;;;;8.70;5.95;;;2.70;99.90;;;;;;5090227;28;20028;-48
2022/12/06 09:09:36;;;;;;;8.80;6.57;;;2.70;99.90;;;;;;5088394;28;20073;-41
2022/12/06 09:12:02;;;;;;;8.13;5.90;;;2.70;99.90;;;;;;5090258;28;20024;-41
2022/12/06 09:14:27;;;;;;;11.20;5.60;;;2.70;99.90;;;;;;5088870;28;20474;-41
2022/12/06 09:16:53;;;;;;;9.75;5.95;;;2.80;99.90;;;;;;5088666;28;20447;-41
2022/12/06 09:19:19;;;;;;;9.80;6.00;;;2.80;99.90;;;;;;5089557;28;20508;-42
2022/12/06 09:21:45;;;;;;;8.60;5.82;;;2.90;99.90;;;;;;5089151;28;20489;-41
2022/12/06 09:24:13;;;;;;;10.13;5.70;;;2.90;99.90;;;;;;5088046;28;20052;-41
2022/12/06 09:26:39;;;;;;;9.70;6.53;;;2.90;99.90;;;;;;5089781;28;20111;-42
2022/12/06 09:29:05;;;;;;;9.45;5.68;;;3.00;99.90;;;;;;5088255;28;20016;-42
2022/12/06 09:31:32;;;;;;;10.50;5.45;;;3.00;99.90;;;;;;5089549;28;20025;-42
2022/12/06 09:33:57;;;;;;;9.45;5.57;;;3.10;99.90;;;;;;5088253;28;20032;-41
2022/12/06 09:36:25;;;;;;;7.80;5.25;;;3.10;99.90;;;;;;5089237;28;20486;-41
2022/12/06 09:39:05;;;;;;;10.40;5.75;;;3.10;99.90;;;;;;5089718;28;20076;-41
2022/12/06 09:42:08;;;;;;;9.43;5.40;;;3.10;99.90;;;;;;5087119;28;20017;-42
2022/12/06 09:45:19;;;;;;;8.68;5.30;;;3.10;99.90;;;;;;5089284;28;20105;-41
2022/12/06 09:48:07;;;;;;;9.60;5.35;;;3.20;99.90;;;;;;5089325;28;20039;-41
2022/12/06 09:50:46;;;;;;;8.50;5.65;;;3.30;99.90;;;;;;5089366;28;20019;-42
2022/12/06 09:53:31;;;;;;;8.88;5.10;;;3.30;99.90;;;;;;5089305;28;20028;-41
2022/12/06 09:56:03;;;;;;;7.22;4.95;;;3.40;99.90;;;;;;5078280;28;20016;-41
2022/12/06 09:58:58;;;;;;;10.98;5.18;;;3.40;99.90;;;;;;5087197;28;20020;-40
2022/12/06 10:01:49;;;;;;;7.40;4.93;;;3.40;99.90;;;;;;5088502;28;20021;-41
2022/12/06 10:04:45;;;;;;;7.38;4.78;;;3.50;99.90;;;;;;5089021;28;20043;-42
2022/12/06 10:07:41;;;;;;;11.65;5.70;;;3.60;99.90;;;;;;5088128;28;20129;-41
2022/12/06 10:10:36;;;;;;;9.50;5.65;;;3.60;99.90;;;;;;5088068;28;20024;-41
2022/12/06 10:13:11;;;;;;;11.13;5.50;;;3.60;99.90;;;;;;5088458;28;20036;-41
2022/12/06 10:16:04;;;;;;;8.00;5.13;;;3.70;99.90;;;;;;5087452;28;20051;-41
2022/12/06 10:18:36;;;;;;;8.48;5.30;;;3.70;99.90;;;;;;5088836;28;20032;-40
2022/12/06 10:21:21;;;;;;;8.23;5.15;;;3.70;99.90;;;;;;5085626;28;20030;-41
2022/12/06 10:24:14;;;;;;;8.45;5.70;;;3.80;99.90;;;;;;5089620;28;20023;-42
2022/12/06 10:26:53;;;;;;;8.32;5.32;;;3.80;99.90;;;;;;5088615;28;20071;-41
2022/12/06 10:29:53;;;;;;;9.13;5.78;;;3.80;99.90;;;;;;5083281;28;20020;-42
2022/12/06 10:32:26;;;;;;;8.73;5.88;;;3.80;99.90;;;;;;5089636;28;20017;-41
2022/12/06 10:35:15;;;;;;;8.68;5.90;;;3.80;99.90;;;;;;5087897;28;20032;-41
2022/12/06 10:38:18;;;;;;;8.55;5.63;;;3.80;99.90;;;;;;5089178;28;20529;-42
2022/12/06 10:41:05;;;;;;;9.88;6.15;;;3.80;99.90;;;;;;5088718;28;20047;-41
2022/12/06 10:43:56;;;;;;;10.48;5.97;;;3.80;99.90;;;;;;5089087;28;20032;-42
2022/12/06 10:49:31;;;;;;;11.52;5.90;;;3.90;99.90;;;;;;5088611;28;20048;-41
2022/12/06 10:52:38;;;;;;;9.32;5.95;;;3.90;99.90;;;;;;5088859;28;20516;-41
2022/12/06 10:55:03;;;;;;;8.77;5.50;;;3.90;99.90;;;;;;5088208;28;20499;-42
2022/12/06 10:57:51;;;;;;;8.45;5.35;;;3.90;99.90;;;;;;5077587;28;20150;-41
2022/12/06 11:00:18;;;;;;;10.55;5.75;;;3.90;99.90;;;;;;5078955;28;20044;-41
2022/12/06 11:03:10;;;;;;;11.35;6.50;;;3.90;99.90;;;;;;5087472;28;20052;-41
2022/12/06 11:05:45;;;;;;;9.90;5.78;;;3.90;99.90;;;;;;5087650;28;20032;-41
2022/12/06 11:08:16;;;;;;;10.57;5.93;;;3.90;99.90;;;;;;5087505;28;20059;-41
2022/12/06 11:10:44;;;;;;;9.52;6.00;;;3.90;99.90;;;;;;5086927;28;20073;-41
2022/12/06 11:13:21;;;;;;;9.93;6.10;;;3.90;99.90;;;;;;5087281;28;20089;-41
2022/12/06 11:15:57;;;;;;;14.45;6.43;;;4.00;99.90;;;;;;5086267;28;20556;-41
2022/12/06 11:18:27;;;;;;;10.55;6.32;;;3.90;99.90;;;;;;5087661;28;20054;-41
2022/12/06 11:20:57;;;;;;;11.18;6.68;;;3.90;99.90;;;;;;5088645;28;20020;-42
2022/12/06 11:23:44;;;;;;;11.85;6.28;;;3.90;99.90;;;;;;5088760;28;20077;-43
2022/12/06 11:26:42;;;;;;;11.25;6.75;;;3.90;99.90;;;;;;5090402;28;20087;-41
2022/12/06 11:29:13;;;;;;;13.25;7.38;;;4.00;99.90;;;;;;5085408;28;20034;-41
2022/12/06 11:31:44;;;;;;;;;;;4.00;99.90;;;;;;5089663;28;20027;-42
2022/12/06 11:34:38;;;;;;;13.52;6.95;;;4.00;99.90;;;;;;5089211;28;19904;-41
2022/12/06 11:37:04;;;;;;;14.38;7.60;;;4.00;99.90;;;;;;5089165;28;20239;-41
2022/12/06 11:39:32;;;;;;;15.88;8.07;;;4.00;99.90;;;;;;5079214;28;20074;-41
2022/12/06 11:42:02;;;;;;;16.58;8.02;;;4.00;99.90;;;;;;5078706;28;20036;-41
2022/12/06 11:44:37;;;;;;;13.20;7.60;;;4.00;99.90;;;;;;5074421;28;20029;-41
2022/12/06 11:47:05;;;;;;;19.02;8.80;;;4.00;99.90;;;;;;5078376;28;20073;-41
2022/12/06 11:49:40;;;;;;;19.13;9.30;;;4.00;99.90;;;;;;5069409;28;20020;-42
2022/12/06 11:52:12;;;;;;;17.17;8.70;;;4.10;99.90;;;;;;5068656;28;20027;-42
2022/12/06 11:54:54;;;;;;;17.60;8.63;;;4.00;99.90;;;;;;5070069;28;20024;-42
2022/12/06 11:57:24;;;;;;;16.83;8.45;;;4.10;99.90;;;;;;5070235;28;20405;-42
2022/12/06 12:00:12;;;;;;;15.32;9.15;;;4.00;99.90;;;;;;5069530;28;20029;-42
2022/12/06 12:02:38;;;;;;;16.17;8.93;;;4.10;99.90;;;;;;5068769;28;20377;-42
2022/12/06 12:05:29;;;;;;;20.48;9.95;;;4.00;99.90;;;;;;5069628;28;20118;-42
2022/12/06 12:08:14;;;;;;;17.60;9.48;;;4.10;99.90;;;;;;5069684;28;20044;-42
2022/12/06 12:10:42;;;;;;;15.65;8.85;;;4.10;99.90;;;;;;5069083;28;20047;-42
2022/12/06 12:16:19;;;;;;;17.38;8.52;;;4.10;99.90;;;;;;5075227;28;20047;-42
2022/12/06 12:18:52;;;;;;;16.20;8.57;;;4.10;99.90;;;;;;5071948;28;20020;-42
2022/12/06 12:21:35;;;;;;;16.67;9.00;;;4.20;99.90;;;;;;5077220;28;20027;-43
2022/12/06 12:24:01;;;;;;;17.00;9.38;;;4.20;99.90;;;;;;5089825;28;20020;-42
2022/12/06 12:26:40;;;;;;;17.98;9.63;;;4.20;99.90;;;;;;5088071;28;20047;-42
2022/12/06 12:29:17;;;;;;;18.23;9.82;;;4.20;99.90;;;;;;5086444;28;20412;-42
2022/12/06 12:31:53;;;;;;;17.15;9.05;;;4.30;99.90;;;;;;5081331;28;20024;-41
2022/12/06 12:34:22;;;;;;;16.23;9.13;;;4.30;99.90;;;;;;5081931;28;20111;-42
2022/12/06 12:36:51;;;;;;;18.05;9.15;;;4.30;99.90;;;;;;5088897;28;20436;-42
2022/12/06 12:39:32;;;;;;;16.48;9.13;;;4.30;99.90;;;;;;5087263;28;20667;-48
2022/12/06 12:41:58;;;;;;;16.60;8.38;;;4.40;99.90;;;;;;5083120;28;20038;-47
2022/12/06 12:44:31;;;;;;;17.58;8.57;;;4.40;99.90;;;;;;5091432;28;20027;-46
2022/12/06 12:47:03;;;;;;;19.52;8.60;;;4.40;99.90;;;;;;5091554;28;20264;-47
2022/12/06 12:49:37;;;;;;;13.10;7.60;;;4.40;99.90;;;;;;5090027;28;20745;-51
2022/12/06 12:52:35;;;;;;;15.60;8.27;;;4.50;99.90;;;;;;5091692;28;20024;-51
2022/12/06 12:55:14;;;;;;;16.50;7.93;;;4.50;99.90;;;;;;5083244;28;20505;-46
2022/12/06 12:57:41;;;;;;;14.23;8.27;;;4.50;99.90;;;;;;5086559;28;20024;-46
2022/12/06 13:00:17;;;;;;;14.20;8.45;;;4.50;99.90;;;;;;5091122;28;20422;-48
2022/12/06 13:02:56;;;;;;;16.00;8.27;;;4.50;99.90;;;;;;5090059;28;20607;-49
2022/12/06 13:05:34;;;;;;;19.30;10.13;;;4.50;99.90;;;;;;5071302;28;20111;-48
2022/12/06 13:08:14;;;;;;;17.08;9.30;;;4.50;99.90;;;;;;5071086;28;20023;-46
2022/12/06 13:10:44;;;;;;;17.45;8.60;;;4.50;99.90;;;;;;5070267;28;20016;-48
2022/12/06 13:13:20;;;;;;;17.70;9.32;;;4.50;99.90;;;;;;5071084;28;20029;-48
2022/12/06 13:15:49;;;;;;;18.27;9.13;;;4.50;99.90;;;;;;5070787;28;20024;-46
2022/12/06 13:18:38;;;;;;;15.93;8.50;;;4.40;99.90;;;;;;5052410;28;20035;-46
2022/12/06 13:21:19;;;;;;;12.90;7.28;;;4.50;99.90;;;;;;5086870;28;20101;-47
2022/12/06 13:23:49;;;;;;;16.80;7.40;;;4.40;99.90;;;;;;5085044;28;20016;-46
2022/12/06 13:26:25;;;;;;;13.30;7.63;;;4.50;99.90;;;;;;5080164;28;20073;-46
2022/12/06 13:28:59;;;;;;;12.82;7.60;;;4.40;99.90;;;;;;5086960;28;20027;-45
2022/12/06 13:31:32;;;;;;;17.77;8.38;;;4.40;99.90;;;;;;5090138;28;20024;-46
2022/12/06 13:34:13;;;;;;;15.25;8.05;;;4.40;99.90;;;;;;5090575;28;20389;-45
2022/12/06 13:36:39;;;;;;;12.45;7.05;;;4.40;99.90;;;;;;5089163;28;20073;-45
2022/12/06 13:39:29;;;;;;;12.90;6.95;;;4.40;99.90;;;;;;5090407;28;20040;-45
2022/12/06 13:44:47;;;;;;;14.10;7.30;;;4.30;99.90;;;;;;5090203;28;20186;-46